Guttenberg, Iowa
Current Conditions -  °F | °C
As of 12:35 PM on Tuesday 27 Jan 2015 (Local Time) from KPDC Reporting Station
Overcast Overcast  
Wind Chill: 30°   Ceiling: 2100
Heat Index: 30°   Visibility: 10mi
Dew Point: 20°   Wind: 3mph
Humidity: 67%   Direction: 50°NE
Pressure: 30.2"   Gusts: NA
Location:  42.79°N, 91.1°W
Report Text: KPDC 271835Z AUTO 05003KT 10SM OVC021 M01/M06 A3020 RMK AO2 T10101064
Loading
Personal Weather Stations






























Interactive Weather Map New forecast layout! Learn more

10-Day Weather Forecast

Advertisements
Track Severe Weather on mobile